Manteo, NC

1:18 AM EDT on March 30, 2017 (GMT -0400)
Dare County Regional

Weather History for KMQI - December, 2013

Change the Weather History Date:

Friday, December 6, 2013

  Actual Average Record
Temperature  
Mean Temperature 64 °F -  
Max Temperature 72 °F 55 °F 75 °F (1998)
Min Temperature 57 °F 43 °F 29 °F (1969)
Degree Days  
Heating Degree Days 1    
Growing Degree Days 14 (Base 50)    
Moisture  
Dew Point 62 °F    
Average Humidity 90    
Maximum Humidity 100    
Minimum Humidity 75    
Precipitation  
Precipitation 0.00 in - - ()
Sea Level Pressure  
Sea Level Pressure 30.08 in    
Wind  
Wind Speed 13 mph (SW)    
Max Wind Speed 22 mph    
Max Gust Speed 28 mph    
Visibility 10 miles    
Events      
Averages and records for this station are not official NWS values.
T = Trace of Precipitation, MM = Missing Value Source: NWS Daily Summary

Daily Weather History Graph

Daily Weather History Graph

Search for Another Location

Airport or City:

Trip Planner

Search our weather history database for the weather conditions in past years. The results will help you decide how hot, cold, wet, or windy it might be!

Date:

Astronomy

Dec. 06, 2013 Rise Set
Actual Time 6:59 AM EST 4:48 PM EST
Civil Twilight 6:30 AM EST 5:16 PM EST
Nautical Twilight 5:59 AM EST 5:48 PM EST
Astronomical Twilight 5:28 AM EST 6:19 PM EST
Moon 10:07 AM EST (12/6) 9:12 PM EST (12/6)
Length of Visible Light 10h 45m
Length of Day
9h 49m
Waxing Crescent, 19% of the Moon is Illuminated
Dec 6
Waxing Crescent
Dec 9
First Quarter
Dec 17
Full
Dec 25
Last Quarter
Jan 1
New

Hourly Weather History & Observations

Time (EST) Temp. Dew Point Humidity Pressure Visibility Wind Dir Wind Speed Gust Speed Precip Events Conditions
12:15 AM 59.0 °F 58.5 °F 98% 30.10 in 10.0 mi SSW 9.2 mph - N/A   Clear
12:35 AM 58.6 °F 58.3 °F 99% 30.09 in 10.0 mi SSW 9.2 mph - N/A   Clear
12:55 AM 59.9 °F 59.7 °F 99% 30.09 in 10.0 mi SSW 11.5 mph - N/A   Clear
1:15 AM 58.1 °F 57.7 °F 99% 30.08 in 10.0 mi SSW 10.4 mph - N/A   Clear
1:35 AM 58.3 °F 58.1 °F 99% 30.08 in 7.0 mi SSW 8.1 mph - N/A   Clear
1:55 AM 58.8 °F 58.8 °F 100% 30.08 in 7.0 mi SSW 11.5 mph - N/A   Clear
2:15 AM 58.8 °F 58.6 °F 99% 30.08 in 7.0 mi SSW 9.2 mph - N/A   Clear
2:35 AM 59.7 °F 59.7 °F 100% 30.08 in 7.0 mi SSW 10.4 mph - N/A   Clear
2:55 AM 62.6 °F 62.6 °F 100% 30.08 in 10.0 mi SSW 10.4 mph - N/A   Clear
3:15 AM 61.5 °F 61.0 °F 98% 30.08 in 10.0 mi SSW 10.4 mph - N/A   Clear
3:35 AM 57.7 °F 57.4 °F 99% 30.08 in 7.0 mi SW 5.8 mph - N/A   Clear
3:55 AM 58.1 °F 58.1 °F 100% 30.08 in 7.0 mi SSW 9.2 mph - N/A   Clear
4:15 AM 61.2 °F 61.2 °F 100% 30.08 in 10.0 mi SSW 9.2 mph - N/A   Clear
4:35 AM 61.2 °F 61.0 °F 99% 30.08 in 10.0 mi SW 5.8 mph - N/A   Clear
4:55 AM 58.1 °F 58.1 °F 100% 30.09 in 4.0 mi SW 8.1 mph - N/A   Clear
5:15 AM 58.6 °F 58.6 °F 100% 30.08 in 5.0 mi SSW 10.4 mph - N/A   Clear
5:35 AM 62.1 °F 62.1 °F 100% 30.08 in 10.0 mi SSW 11.5 mph - N/A   Clear
5:55 AM 62.4 °F 62.2 °F 99% 30.08 in 10.0 mi SSW 13.8 mph - N/A   Clear
6:15 AM 60.6 °F 60.4 °F 99% 30.08 in 10.0 mi SSW 12.7 mph - N/A   Clear
6:35 AM 60.8 °F 60.6 °F 99% 30.09 in 10.0 mi SSW 12.7 mph - N/A   Clear
6:55 AM 61.7 °F 61.3 °F 99% 30.09 in 10.0 mi SSW 13.8 mph - N/A   Clear
7:15 AM 59.9 °F 59.4 °F 98% 30.09 in 10.0 mi SSW 10.4 mph - N/A   Clear
7:35 AM 58.5 °F 58.1 °F 99% 30.10 in 7.0 mi SSW 10.4 mph - N/A   Clear
7:55 AM 59.9 °F 59.9 °F 100% 30.10 in 10.0 mi SW 11.5 mph - N/A   Clear
8:15 AM 61.7 °F 61.2 °F 98% 30.10 in 10.0 mi SW 12.7 mph - N/A   Clear
8:35 AM 63.3 °F 62.2 °F 96% 30.11 in 10.0 mi SW 13.8 mph - N/A   Clear
8:55 AM 66.9 °F 63.7 °F 89% 30.11 in 10.0 mi WSW 16.1 mph 20.7 mph N/A   Clear
9:15 AM 68.5 °F 63.9 °F 85% 30.12 in 10.0 mi WSW 16.1 mph 26.5 mph N/A   Clear
9:35 AM 68.9 °F 63.7 °F 83% 30.13 in 10.0 mi WSW 18.4 mph 25.3 mph N/A   Clear
9:55 AM 70.2 °F 63.7 °F 80% 30.13 in 10.0 mi WSW 17.3 mph 27.6 mph N/A   Clear
10:15 AM 69.3 °F 63.3 °F 81% 30.13 in 10.0 mi WSW 19.6 mph 26.5 mph N/A   Clear
10:35 AM 69.8 °F 63.3 °F 80% 30.13 in 10.0 mi WSW 20.7 mph 26.5 mph N/A   Scattered Clouds
10:55 AM 70.5 °F 63.7 °F 79% 30.12 in 10.0 mi WSW 21.9 mph 26.5 mph N/A   Scattered Clouds
11:15 AM 70.9 °F 64.0 °F 79% 30.11 in 10.0 mi WSW 19.6 mph - N/A   Scattered Clouds
11:35 AM 70.0 °F 63.5 °F 80% 30.11 in 10.0 mi WSW 17.3 mph 24.2 mph N/A   Scattered Clouds
11:55 AM 70.2 °F 63.9 °F 80% 30.10 in 10.0 mi WSW 17.3 mph - N/A   Mostly Cloudy
12:15 PM 68.4 °F 62.8 °F 82% 30.09 in 10.0 mi WSW 12.7 mph 17.3 mph N/A   Scattered Clouds
12:35 PM 71.6 °F 63.5 °F 76% 30.08 in 10.0 mi WSW 17.3 mph 23.0 mph N/A   Scattered Clouds
12:55 PM 71.6 °F 63.9 °F 76% 30.07 in 10.0 mi WSW 17.3 mph - N/A   Mostly Cloudy
1:15 PM 71.6 °F 63.7 °F 76% 30.06 in 10.0 mi WSW 20.7 mph 24.2 mph N/A   Mostly Cloudy
1:35 PM 71.8 °F 63.3 °F 75% 30.05 in 10.0 mi WSW 19.6 mph - N/A   Mostly Cloudy
1:55 PM 70.9 °F 63.1 °F 76% 30.05 in 10.0 mi WSW 16.1 mph - N/A   Scattered Clouds
2:15 PM 70.5 °F 63.0 °F 77% 30.05 in 10.0 mi SW 13.8 mph - N/A   Scattered Clouds
2:35 PM 70.5 °F 63.0 °F 77% 30.04 in 10.0 mi WSW 12.7 mph - N/A   Scattered Clouds
2:55 PM 70.9 °F 63.5 °F 77% 30.04 in 10.0 mi SW 17.3 mph - N/A   Scattered Clouds
3:15 PM 70.0 °F 63.0 °F 78% 30.03 in 10.0 mi WSW 17.3 mph 20.7 mph N/A   Scattered Clouds
3:35 PM 68.2 °F 62.1 °F 81% 30.03 in 10.0 mi SW 13.8 mph - N/A   Clear
3:55 PM 67.5 °F 61.7 °F 82% 30.03 in 10.0 mi SSW 11.5 mph - N/A   Clear
4:15 PM 67.8 °F 62.8 °F 84% 30.04 in 10.0 mi SW 17.3 mph - N/A   Clear
4:35 PM 65.7 °F 61.3 °F 86% 30.04 in 10.0 mi SW 15.0 mph - N/A   Clear
4:55 PM 66.0 °F 61.3 °F 85% 30.05 in 10.0 mi SSW 10.4 mph - N/A   Clear
5:15 PM 63.9 °F 60.4 °F 89% 30.05 in 10.0 mi SSW 11.5 mph - N/A   Clear
5:35 PM 64.8 °F 61.3 °F 89% 30.05 in 10.0 mi SSW 12.7 mph - N/A   Clear
5:55 PM 64.8 °F 61.7 °F 90% 30.06 in 10.0 mi SSW 13.8 mph - N/A   Clear
6:35 PM 64.2 °F 61.9 °F 92% 30.06 in 10.0 mi SW 12.7 mph - N/A   Clear
6:55 PM 64.6 °F 62.2 °F 92% 30.06 in 10.0 mi SW 15.0 mph - N/A   Clear
7:15 PM 65.3 °F 62.8 °F 92% 30.06 in 10.0 mi SW 17.3 mph 23.0 mph N/A   Scattered Clouds
7:35 PM 65.8 °F 63.3 °F 92% 30.07 in 10.0 mi SW 15.0 mph 21.9 mph N/A   Scattered Clouds
7:55 PM 66.0 °F 63.3 °F 91% 30.07 in 10.0 mi SW 16.1 mph - N/A   Clear
8:15 PM 66.2 °F 63.7 °F 92% 30.07 in 10.0 mi SW 17.3 mph - N/A   Scattered Clouds
8:35 PM 66.0 °F 63.7 °F 92% 30.07 in 10.0 mi SW 17.3 mph - N/A   Scattered Clouds
8:55 PM 66.2 °F 64.0 °F 93% 30.06 in 10.0 mi SW 18.4 mph - N/A   Clear
9:15 PM 66.0 °F 63.7 °F 92% 30.07 in 10.0 mi SW 18.4 mph - N/A   Clear
9:35 PM 64.8 °F 62.4 °F 92% 30.06 in 10.0 mi SW 17.3 mph - N/A   Clear
9:55 PM 64.6 °F 62.8 °F 94% 30.06 in 10.0 mi SW 18.4 mph - N/A   Clear
10:15 PM 64.0 °F 62.1 °F 93% 30.07 in 10.0 mi SW 13.8 mph - N/A   Clear
10:35 PM 64.0 °F 61.9 °F 93% 30.07 in 10.0 mi SW 16.1 mph - N/A   Clear
10:55 PM 64.4 °F 62.2 °F 93% 30.06 in 10.0 mi SW 17.3 mph - N/A   Clear
11:15 PM 65.5 °F 62.4 °F 90% 30.06 in 10.0 mi SW 18.4 mph - N/A   Clear
11:35 PM 65.1 °F 62.1 °F 90% 30.06 in 10.0 mi SW 17.3 mph - N/A   Clear
11:55 PM 65.1 °F 62.1 °F 90% 30.05 in 10.0 mi SW 19.6 mph - N/A   Clear